Temp: 13.8°C   Baro: 1008.4mb
  Wind: 6.9mph   Dir: W (268°)
  Rain: 6.4mm (0.0mm/hr)
  Sun: 265W/m2  Humidity: 92%

Historic data

Bath Spa Weather Station Historical Data
Daily Summary for February 28, 2024 Units:  English    Metric   Both
Daily Weekly Monthly Yearly Custom
  High: Low: Average:
Temperature: 51.4 °F 42.3 °F 47.3 °F
Dew Point: 49.5 °F 40.6 °F 45.4 °F
Humidity: 95% 90% 93%
Wind Speed: 12.2mph 0mph 2.6mph
Wind Gust: 19mph - -
Wind- - SW
Pressure: 30.15 in 29.82 in -
Precipitation: 0.02 in    
Historical Graphs
 
 
Tabular Data for February 28, 2024
Time Temperature Dew Point Pressure Wind Wind Speed Wind Gust Humidity Rainfall Rate (Hourly) solar
00:09 45.3 °F 43.7 °F 30.15 in Calm     94% 0.00 in 0 W/m2
00:14 45.2 °F 43.6 °F 30.14 in Calm     94% 0.00 in 0 W/m2
00:19 45.1 °F 43.5 °F 30.14 in Calm     94% 0.00 in 0 W/m2
00:24 45.1 °F 43.5 °F 30.14 in Calm     94% 0.00 in 0 W/m2
00:29 45.1 °F 43.4 °F 30.14 in Calm     94% 0.00 in 0 W/m2
00:34 45.1 °F 43.5 °F 30.14 in Calm     94% 0.00 in 0 W/m2
00:39 45 °F 43.3 °F 30.15 in Calm   1 mph 94% 0.00 in 0 W/m2
00:44 45.1 °F 43.4 °F 30.15 in Calm     94% 0.00 in 0 W/m2
00:49 45.1 °F 43.4 °F 30.15 in Calm     94% 0.00 in 0 W/m2
00:54 45.1 °F 43.4 °F 30.15 in Calm     94% 0.00 in 0 W/m2
00:59 45.1 °F 43.5 °F 30.15 in Calm     94% 0.00 in 0 W/m2
01:04 45.1 °F 43.4 °F 30.15 in West 0.6 mph 2 mph 94% 0.00 in 0 W/m2
01:09 45 °F 43.3 °F 30.15 in West 0.9 mph 2 mph 94% 0.00 in 0 W/m2
01:14 45 °F 43.3 °F 30.15 in Calm   2 mph 94% 0.00 in 0 W/m2
01:19 45.1 °F 43.5 °F 30.15 in Calm     94% 0.00 in 0 W/m2
01:24 45.1 °F 43.4 °F 30.15 in Calm     94% 0.00 in 0 W/m2
01:29 45.1 °F 43.5 °F 30.14 in Calm     94% 0.00 in 0 W/m2
01:34 45.1 °F 43.5 °F 30.14 in Calm     94% 0.00 in 0 W/m2
01:39 45.1 °F 43.5 °F 30.15 in Calm     94% 0.00 in 0 W/m2
01:44 45.1 °F 43.5 °F 30.15 in Calm     94% 0.00 in 0 W/m2
01:49 45.1 °F 43.5 °F 30.15 in Calm     94.2% 0.00 in 0 W/m2
01:54 45.1 °F 43.7 °F 30.15 in Calm     94.8% 0.00 in 0 W/m2
01:59 45 °F 43.7 °F 30.15 in Calm     95% 0.00 in 0 W/m2
02:04 45 °F 43.7 °F 30.15 in West 1.6 mph 3 mph 95% 0.00 in 0 W/m2
02:09 45 °F 43.7 °F 30.15 in West 1.9 mph 5 mph 95% 0.00 in 0 W/m2
02:14 45 °F 43.7 °F 30.15 in WSW 3.2 mph 5 mph 95% 0.00 in 0 W/m2
02:19 45 °F 43.7 °F 30.15 in WSW 2.3 mph 3 mph 95% 0.00 in 0 W/m2
02:24 45 °F 43.7 °F 30.14 in WSW 2.5 mph 4 mph 95% 0.00 in 0 W/m2
02:29 45 °F 43.7 °F 30.15 in WSW 1.3 mph 3 mph 95% 0.00 in 0 W/m2
02:34 45 °F 43.7 °F 30.15 in WSW 1.3 mph 4 mph 95% 0.00 in 0 W/m2
02:39 45 °F 43.7 °F 30.15 in WSW 2.2 mph 5 mph 95% 0.00 in 0 W/m2
02:44 45 °F 43.7 °F 30.15 in WSW 1.8 mph 5 mph 95% 0.00 in 0 W/m2
02:49 45 °F 43.7 °F 30.15 in WSW 0.4 mph 2 mph 95% 0.00 in 0 W/m2
02:54 45 °F 43.7 °F 30.15 in WSW 0.6 mph 3 mph 95% 0.00 in 0 W/m2
02:59 45 °F 43.8 °F 30.15 in Calm   1 mph 95% 0.00 in 0 W/m2
03:04 45.1 °F 43.8 °F 30.15 in WSW 0.2 mph 1 mph 95% 0.00 in 0 W/m2
03:09 45.1 °F 43.9 °F 30.15 in WSW 1 mph 3 mph 95% 0.00 in 0 W/m2
03:14 45 °F 43.7 °F 30.15 in WSW 2 mph 3 mph 95% 0.00 in 0 W/m2
03:19 45 °F 43.7 °F 30.14 in WSW 1.4 mph 4 mph 95% 0.00 in 0 W/m2
03:24 45.1 °F 43.8 °F 30.14 in Calm   2 mph 95% 0.00 in 0 W/m2
03:29 45 °F 43.7 °F 30.14 in WSW 0.2 mph 1 mph 95% 0.00 in 0 W/m2
03:34 45 °F 43.7 °F 30.14 in Calm   1 mph 95% 0.00 in 0 W/m2
03:39 45 °F 43.7 °F 30.14 in Calm   1 mph 95% 0.00 in 0 W/m2
03:44 44.8 °F 43.5 °F 30.14 in Calm   1 mph 95% 0.00 in 0 W/m2
03:49 44.8 °F 43.5 °F 30.14 in Calm     95% 0.00 in 0 W/m2
03:54 44.6 °F 43.3 °F 30.14 in Calm     95% 0.00 in 0 W/m2
03:59 44.4 °F 43.2 °F 30.14 in Calm     95% 0.00 in 0 W/m2
04:04 44.4 °F 43.2 °F 30.14 in Calm     95% 0.00 in 0 W/m2
04:09 44.2 °F 43 °F 30.14 in Calm     95% 0.00 in 0 W/m2
04:14 44.2 °F 43 °F 30.14 in Calm     95% 0.00 in 0 W/m2
04:19 44.2 °F 42.9 °F 30.14 in WSW 0.2 mph 1 mph 95% 0.00 in 0 W/m2
04:24 44.2 °F 43 °F 30.14 in Calm   2 mph 95% 0.00 in 0 W/m2
04:29 44.1 °F 42.8 °F 30.14 in Calm   1 mph 95% 0.00 in 0 W/m2
04:34 44.1 °F 42.8 °F 30.14 in WSW 0.2 mph 1 mph 95% 0.00 in 0 W/m2
04:39 44.1 °F 42.8 °F 30.13 in WSW 0.4 mph 2 mph 95% 0.00 in 0 W/m2
04:44 44.1 °F 42.8 °F 30.13 in WSW 1.2 mph 3 mph 95% 0.00 in 0 W/m2
04:49 43.9 °F 42.6 °F 30.13 in WSW 1 mph 4 mph 95% 0.00 in 0 W/m2
04:54 43.9 °F 42.6 °F 30.13 in WSW 2.4 mph 4 mph 95% 0.00 in 0 W/m2
04:59 43.9 °F 42.6 °F 30.13 in WSW 2 mph 4 mph 95% 0.00 in 0 W/m2
05:04 43.8 °F 42.5 °F 30.13 in WSW 0.7 mph 2 mph 95% 0.00 in 0 W/m2
05:09 43.8 °F 42.5 °F 30.12 in WSW 0.9 mph 3 mph 95% 0.00 in 0 W/m2
05:14 43.7 °F 42.4 °F 30.12 in WSW 0.5 mph 3 mph 95% 0.00 in 0 W/m2
05:19 43.7 °F 42.4 °F 30.12 in WSW 0.2 mph 2 mph 95% 0.00 in 0 W/m2
05:24 43.5 °F 42.3 °F 30.12 in Calm   1 mph 95% 0.00 in 0 W/m2
05:29 43.5 °F 42.3 °F 30.12 in WSW 0.6 mph 2 mph 95% 0.00 in 0 W/m2
05:34 43.5 °F 42.3 °F 30.12 in WSW 1.4 mph 3 mph 95% 0.00 in 0 W/m2
05:39 43.4 °F 42.2 °F 30.12 in WSW 1.6 mph 5 mph 95% 0.00 in 0 W/m2
05:44 43.3 °F 42.1 °F 30.12 in West 0.8 mph 3 mph 95% 0.00 in 0 W/m2
05:48 43.3 °F 42.1 °F 30.12 in West 2 mph 5 mph 95% 0.00 in 0 W/m2
05:54 43.2 °F 41.9 °F 30.13 in West 1.5 mph 4 mph 95% 0.00 in 0 W/m2
05:59 43.2 °F 41.9 °F 30.12 in West 0.2 mph 2 mph 95% 0.00 in 0 W/m2
06:04 43.2 °F 41.9 °F 30.12 in West 0.4 mph 3 mph 95% 0.00 in 0 W/m2
06:09 43.1 °F 41.8 °F 30.12 in West 0.7 mph 2 mph 95% 0.00 in 0 W/m2
06:14 43 °F 41.7 °F 30.12 in West 1.2 mph 3 mph 95% 0.00 in 0 W/m2
06:19 43 °F 41.7 °F 30.12 in West 0.8 mph 2 mph 95% 0.00 in 0 W/m2
06:24 43 °F 41.7 °F 30.11 in West 0.8 mph 2 mph 95% 0.00 in 0 W/m2
06:29 42.9 °F 41.6 °F 30.11 in West 1.1 mph 3 mph 95% 0.00 in 0 W/m2
06:34 42.9 °F 41.6 °F 30.11 in West 0.2 mph 2 mph 95% 0.00 in 0 W/m2
06:39 42.8 °F 41.5 °F 30.11 in West 0.4 mph 2 mph 95% 0.00 in 0 W/m2
06:44 42.8 °F 41.5 °F 30.11 in West 1.2 mph 3 mph 95% 0.00 in 0 W/m2
06:49 42.8 °F 41.5 °F 30.11 in West 0.8 mph 3 mph 95% 0.00 in 0 W/m2
06:54 42.8 °F 41.5 °F 30.11 in Calm   1 mph 95% 0.00 in 0 W/m2
06:59 42.8 °F 41.5 °F 30.11 in Calm   1 mph 95% 0.00 in 0 W/m2
07:04 42.8 °F 41.5 °F 30.11 in Calm   1 mph 95% 0.00 in 5 W/m2
07:09 42.8 °F 41.5 °F 30.11 in West 0.2 mph 2 mph 95% 0.00 in 12 W/m2
07:14 42.6 °F 41.4 °F 30.11 in West 0.4 mph 2 mph 95% 0.00 in 14 W/m2
07:18 42.6 °F 41.4 °F 30.11 in West 0.5 mph 2 mph 95% 0.00 in 14 W/m2
07:24 42.6 °F 41.4 °F 30.11 in Calm   2 mph 95% 0.00 in 18 W/m2
07:29 42.5 °F 41.3 °F 30.11 in West 0.8 mph 2 mph 95% 0.00 in 25 W/m2
07:34 42.4 °F 40.9 °F 30.11 in West 1.6 mph 3 mph 94.2% 0.00 in 37 W/m2
07:39 42.4 °F 40.8 °F 30.11 in West 1.3 mph 3 mph 94% 0.00 in 47 W/m2
07:44 42.3 °F 40.6 °F 30.11 in West 0.6 mph 2 mph 94% 0.00 in 47 W/m2
07:49 42.4 °F 40.7 °F 30.12 in West 1.9 mph 4 mph 94% 0.00 in 37 W/m2
07:54 42.3 °F 40.6 °F 30.12 in West 1.8 mph 4 mph 94% 0.00 in 39 W/m2
07:59 42.3 °F 40.6 °F 30.12 in West 1.4 mph 3 mph 94% 0.00 in 39 W/m2
08:04 42.4 °F 40.8 °F 30.12 in West 1.4 mph 3 mph 94% 0.00 in 35 W/m2
08:09 42.3 °F 40.6 °F 30.12 in West 0.2 mph 2 mph 94% 0.00 in 35 W/m2
08:14 42.3 °F 40.6 °F 30.12 in West 1.3 mph 3 mph 94% 0.00 in 39 W/m2
08:19 42.3 °F 40.6 °F 30.13 in West 0.9 mph 3 mph 94% 0.00 in 47 W/m2
08:24 42.4 °F 40.8 °F 30.13 in West 0.5 mph 2 mph 94% 0.00 in 53 W/m2
08:29 42.5 °F 40.9 °F 30.13 in Calm   1 mph 94% 0.00 in 53 W/m2
08:34 42.6 °F 41 °F 30.13 in West 0.2 mph 3 mph 94% 0.00 in 49 W/m2
08:39 42.8 °F 41.2 °F 30.12 in West 0.2 mph 1 mph 94% 0.00 in 44 W/m2
08:44 42.8 °F 41.2 °F 30.13 in West 0.2 mph 1 mph 94% 0.00 in 42 W/m2
08:49 43 °F 41.4 °F 30.12 in Calm     94% 0.00 in 44 W/m2
08:54 43.2 °F 41.5 °F 30.12 in Calm     94% 0.00 in 49 W/m2
08:59 43.2 °F 41.6 °F 30.12 in West 0.4 mph 2 mph 94% 0.00 in 51 W/m2
09:04 43.2 °F 41.5 °F 30.12 in Calm   1 mph 94% 0.00 in 54 W/m2
09:09 43.2 °F 41.5 °F 30.12 in West 0.2 mph 2 mph 94% 0.00 in 54 W/m2
09:14 43.3 °F 41.7 °F 30.12 in West 0.8 mph 2 mph 94% 0.00 in 67 W/m2
09:19 43.3 °F 41.7 °F 30.12 in West 1.5 mph 3 mph 94% 0.00 in 86 W/m2
09:24 43.5 °F 41.9 °F 30.12 in West 1.2 mph 3 mph 94% 0.00 in 93 W/m2
09:29 43.5 °F 41.9 °F 30.12 in SW 0.5 mph 5 mph 94% 0.00 in 102 W/m2
09:34 43.9 °F 42.3 °F 30.12 in SW 0.4 mph 4 mph 94% 0.00 in 104 W/m2
09:39 44.1 °F 42.4 °F 30.12 in SW 1.3 mph 4 mph 94% 0.00 in 98 W/m2
09:44 44.2 °F 42.6 °F 30.11 in SW 1.5 mph 3 mph 94% 0.00 in 98 W/m2
09:49 44.3 °F 42.7 °F 30.12 in SW 1.6 mph 5 mph 94% 0.00 in 109 W/m2
09:54 44.4 °F 42.8 °F 30.11 in SW 3.2 mph 6 mph 94% 0.00 in 109 W/m2
09:59 44.5 °F 42.9 °F 30.11 in SW 2.4 mph 6 mph 94% 0.00 in 102 W/m2
10:04 44.7 °F 43.1 °F 30.11 in SW 3.2 mph 7 mph 94% 0.00 in 107 W/m2
10:09 44.8 °F 43 °F 30.11 in SW 2.1 mph 7 mph 93.4% 0.00 in 105 W/m2
10:14 44.8 °F 43 °F 30.11 in SW 2.5 mph 7 mph 93.4% 0.00 in 104 W/m2
10:19 45 °F 43 °F 30.11 in SW 2.6 mph 6 mph 93% 0.00 in 102 W/m2
10:24 45 °F 43 °F 30.11 in SSW 2.5 mph 7 mph 93% 0.00 in 102 W/m2
10:29 45.1 °F 43.2 °F 30.11 in SW 2.1 mph 7 mph 93% 0.00 in 114 W/m2
10:34 45.2 °F 43.2 °F 30.10 in SW 0.9 mph 4 mph 92.6% 0.00 in 120 W/m2
10:39 45.3 °F 43.2 °F 30.10 in SSW 2.6 mph 6 mph 92% 0.00 in 120 W/m2
10:44 45.5 °F 43.3 °F 30.10 in SSW 2.4 mph 6 mph 92% 0.00 in 121 W/m2
10:49 45.5 °F 43.3 °F 30.10 in SW 2.8 mph 7 mph 92% 0.00 in 120 W/m2
10:54 45.6 °F 43.4 °F 30.10 in SW 1.3 mph 4 mph 92% 0.00 in 111 W/m2
10:59 45.8 °F 43.3 °F 30.09 in SW 2.1 mph 4 mph 91.2% 0.00 in 105 W/m2
11:04 45.7 °F 43.2 °F 30.09 in SW 1.6 mph 4 mph 91% 0.00 in 95 W/m2
11:09 45.7 °F 43.2 °F 30.09 in SW 0.9 mph 3 mph 91% 0.01 in 107 W/m2
11:14 45.9 °F 43.3 °F 30.09 in SW 0.9 mph 4 mph 91% 0.01 in 113 W/m2
11:18 45.8 °F 43.3 °F 30.09 in SSW 1.7 mph 5 mph 91% 0.01 in 130 W/m2
11:24 45.8 °F 43.3 °F 30.08 in SSW 2.1 mph 4 mph 91% 0.01 in 135 W/m2
11:29 45.9 °F 43.4 °F 30.08 in SSW 1.7 mph 3 mph 91% 0.01 in 149 W/m2
11:34 46 °F 43.5 °F 30.08 in SSW 1.3 mph 5 mph 91% 0.02 in 148 W/m2
11:39 46 °F 43.5 °F 30.08 in SSE 2.9 mph 6 mph 91% 0.02 in 121 W/m2
11:44 46 °F 43.5 °F 30.08 in SSW 2 mph 7 mph 91% 0.02 in 123 W/m2
11:49 46 °F 43.5 °F 30.07 in SSW 3 mph 7 mph 91% 0.02 in 137 W/m2
11:54 46 °F 43.5 °F 30.07 in SSW 3.2 mph 9 mph 91% 0.02 in 137 W/m2
11:59 46 °F 43.4 °F 30.07 in SSW 2.1 mph 7 mph 90.2% 0.02 in 121 W/m2
12:04 46.2 °F 43.5 °F 30.07 in SSW 0.2 mph 1 mph 90% 0.02 in 98 W/m2
12:09 46.4 °F 43.9 °F 30.06 in SSW 0.6 mph 4 mph 90.8% 0.02 in 98 W/m2
12:14 46.6 °F 44.1 °F 30.06 in North 1.9 mph 5 mph 91% 0.01 in 84 W/m2
12:19 46.8 °F 44.2 °F 30.06 in ESE 1.5 mph 5 mph 91% 0.01 in 86 W/m2
12:24 46.8 °F 44.2 °F 30.06 in SSE 1.6 mph 5 mph 91% 0.01 in 76 W/m2
12:29 46.9 °F 44.4 °F 30.06 in South 1.8 mph 5 mph 91% 0.01 in 58 W/m2
12:34 46.9 °F 44.4 °F 30.06 in SSW 2.8 mph 9 mph 91% 0.01 in 60 W/m2
12:38 47.1 °F 44.6 °F 30.06 in South 2.4 mph 6 mph 91% 0.00 in 69 W/m2
12:44 47.1 °F 44.6 °F 30.05 in SSW 4.5 mph 7 mph 91% 0.00 in 76 W/m2
12:49 47.2 °F 44.7 °F 30.05 in SW 2.4 mph 6 mph 91% 0.00 in 93 W/m2
12:54 47.5 °F 45 °F 30.05 in SW 1 mph 6 mph 91% 0.00 in 90 W/m2
12:59 47.6 °F 45.1 °F 30.04 in SSW 2.4 mph 6 mph 91% 0.00 in 74 W/m2
13:04 47.8 °F 45.2 °F 30.04 in SSW 1.7 mph 7 mph 91% 0.00 in 56 W/m2
13:09 47.8 °F 45.3 °F 30.04 in SSW 3.2 mph 9 mph 91% 0.00 in 51 W/m2
13:14 48 °F 45.5 °F 30.04 in SW 2.6 mph 5 mph 91% 0.00 in 47 W/m2
13:19 48 °F 45.5 °F 30.04 in WSW 0.8 mph 4 mph 91% 0.01 in 49 W/m2
13:24 48.2 °F 45.7 °F 30.03 in SW 3.4 mph 8 mph 91% 0.01 in 60 W/m2
13:29 48.4 °F 46 °F 30.03 in SW 0.6 mph 5 mph 91.6% 0.01 in 63 W/m2
13:34 48.5 °F 46.3 °F 30.03 in SW 0.5 mph 5 mph 92% 0.01 in 74 W/m2
13:39 48.6 °F 46.4 °F 30.03 in SSW 4 mph 9 mph 91.8% 0.01 in 77 W/m2
13:44 48.8 °F 46.7 °F 30.03 in SSW 3.6 mph 9 mph 92% 0.01 in 49 W/m2
13:49 48.9 °F 46.8 °F 30.02 in SW 3.4 mph 7 mph 92% 0.01 in 47 W/m2
13:54 49.1 °F 46.9 °F 30.02 in SW 2.2 mph 11 mph 92% 0.01 in 46 W/m2
13:59 49.3 °F 47.1 °F 30.02 in SW 5 mph 13 mph 92% 0.01 in 33 W/m2
14:04 49.3 °F 47.1 °F 30.02 in SSW 4.9 mph 13 mph 92% 0.01 in 40 W/m2
14:09 49.3 °F 47.1 °F 30.02 in SSW 4.8 mph 12 mph 92% 0.01 in 39 W/m2
14:14 49.5 °F 47.3 °F 30.01 in SSW 3.6 mph 9 mph 92% 0.01 in 35 W/m2
14:19 49.5 °F 47.3 °F 30.01 in SW 3.6 mph 7 mph 92% 0.01 in 39 W/m2
14:24 49.5 °F 47.3 °F 30.01 in SW 2.5 mph 6 mph 92% 0.00 in 33 W/m2
14:29 49.6 °F 47.5 °F 30.01 in SW 4.6 mph 8 mph 92% 0.00 in 35 W/m2
14:34 49.6 °F 47.5 °F 30.01 in South 3.8 mph 8 mph 92% 0.00 in 32 W/m2
14:39 49.6 °F 47.6 °F 30.01 in West 1.8 mph 7 mph 92.4% 0.00 in 42 W/m2
14:44 49.6 °F 47.7 °F 30.00 in WSW 1.7 mph 4 mph 92.8% 0.00 in 42 W/m2
14:49 49.7 °F 47.8 °F 30.00 in SW 1.8 mph 6 mph 93% 0.00 in 39 W/m2
14:54 49.8 °F 47.8 °F 29.99 in SSW 2.4 mph 6 mph 93% 0.00 in 44 W/m2
14:59 50.1 °F 48.1 °F 29.99 in SW 1.9 mph 6 mph 93% 0.00 in 35 W/m2
15:04 50.2 °F 48.2 °F 29.99 in SSW 2.9 mph 7 mph 93% 0.00 in 35 W/m2
15:09 50.4 °F 48.4 °F 29.99 in SW 4.3 mph 9 mph 93% 0.00 in 37 W/m2
15:14 50.5 °F 48.6 °F 29.98 in SW 3.7 mph 7 mph 93% 0.00 in 40 W/m2
15:19 50.5 °F 48.6 °F 29.98 in SW 4.4 mph 7 mph 93% 0.00 in 37 W/m2
15:24 50.7 °F 48.7 °F 29.98 in SW 3.1 mph 7 mph 93% 0.00 in 32 W/m2
15:29 50.7 °F 48.7 °F 29.98 in SW 3.8 mph 7 mph 93% 0.00 in 35 W/m2
15:34 50.9 °F 48.9 °F 29.98 in SSW 5.5 mph 7 mph 93% 0.00 in 33 W/m2
15:39 51.1 °F 49.1 °F 29.98 in SW 5.6 mph 8 mph 93% 0.00 in 32 W/m2
15:44 51.1 °F 49.1 °F 29.97 in SW 3.6 mph 6 mph 93% 0.00 in 26 W/m2
15:49 51.1 °F 49.1 °F 29.97 in SSW 3.2 mph 8 mph 93% 0.00 in 30 W/m2
15:54 51.3 °F 49.3 °F 29.97 in SSW 2.5 mph 5 mph 93% 0.00 in 28 W/m2
15:59 51.3 °F 49.3 °F 29.97 in SSW 3.7 mph 8 mph 93% 0.00 in 28 W/m2
16:04 51.3 °F 49.3 °F 29.96 in SSW 4.6 mph 8 mph 93% 0.00 in 26 W/m2
16:08 51.3 °F 49.3 °F 29.96 in SW 3.2 mph 7 mph 93% 0.00 in 25 W/m2
16:14 51.3 °F 49.3 °F 29.96 in SW 3 mph 8 mph 93% 0.00 in 23 W/m2
16:19 51.4 °F 49.4 °F 29.96 in SW 4.7 mph 8 mph 93% 0.00 in 26 W/m2
16:24 51.4 °F 49.5 °F 29.96 in SW 3.6 mph 7 mph 93% 0.00 in 26 W/m2
16:29 51.4 °F 49.5 °F 29.96 in SSW 3.7 mph 10 mph 93% 0.00 in 23 W/m2
16:34 51.4 °F 49.5 °F 29.96 in SSW 5.1 mph 10 mph 93% 0.00 in 14 W/m2
16:39 51.4 °F 49.5 °F 29.96 in SW 3.6 mph 7 mph 93% 0.00 in 12 W/m2
16:44 51.4 °F 49.5 °F 29.95 in SSW 3.7 mph 7 mph 93% 0.00 in 11 W/m2
16:49 51.4 °F 49.5 °F 29.95 in SSW 4.8 mph 9 mph 93% 0.00 in 11 W/m2
16:54 51.4 °F 49.5 °F 29.95 in South 2.5 mph 7 mph 93% 0.00 in 9 W/m2
16:59 51.4 °F 49.5 °F 29.95 in South 1.9 mph 5 mph 93% 0.00 in 9 W/m2
17:04 51.4 °F 49.5 °F 29.95 in South 1.7 mph 5 mph 93% 0.00 in 5 W/m2
17:09 51.4 °F 49.5 °F 29.95 in SW 3.8 mph 9 mph 93% 0.00 in 5 W/m2
17:14 51.4 °F 49.5 °F 29.95 in SSW 3.6 mph 7 mph 93% 0.00 in 5 W/m2
17:19 51.4 °F 49.5 °F 29.95 in SSW 3.6 mph 7 mph 93% 0.00 in 5 W/m2
17:24 51.4 °F 49.5 °F 29.94 in SSW 2.8 mph 7 mph 93% 0.00 in 0 W/m2
17:29 51.4 °F 49.5 °F 29.95 in SW 3.8 mph 8 mph 93% 0.00 in 0 W/m2
17:34 51.4 °F 49.5 °F 29.94 in SW 3.3 mph 8 mph 93% 0.00 in 0 W/m2
17:39 51.4 °F 49.5 °F 29.94 in SSW 1.7 mph 6 mph 93% 0.00 in 0 W/m2
17:44 51.4 °F 49.5 °F 29.94 in SSW 4.4 mph 7 mph 93% 0.00 in 0 W/m2
17:49 51.4 °F 49.5 °F 29.93 in SSW 2.5 mph 7 mph 93% 0.00 in 0 W/m2
17:54 51.4 °F 49.5 °F 29.93 in SSW 3.7 mph 7 mph 93% 0.00 in 0 W/m2
17:59 51.4 °F 49.5 °F 29.93 in SSW 3.4 mph 7 mph 93% 0.00 in 0 W/m2
18:04 51.4 °F 49.5 °F 29.93 in SW 3.4 mph 6 mph 93% 0.00 in 0 W/m2
18:09 51.4 °F 49.5 °F 29.93 in SW 4.4 mph 7 mph 93% 0.00 in 0 W/m2
18:14 51.4 °F 49.5 °F 29.93 in SW 2.5 mph 8 mph 93% 0.00 in 0 W/m2
18:19 51.4 °F 49.5 °F 29.93 in SW 3.6 mph 8 mph 93% 0.00 in 0 W/m2
18:24 51.4 °F 49.5 °F 29.93 in SSW 4.5 mph 8 mph 93% 0.00 in 0 W/m2
18:29 51.4 °F 49.5 °F 29.93 in SW 3.4 mph 8 mph 93% 0.00 in 0 W/m2
18:34 51.4 °F 49.5 °F 29.92 in SSW 2.1 mph 6 mph 93% 0.00 in 0 W/m2
18:39 51.4 °F 49.5 °F 29.92 in SW 2 mph 4 mph 93% 0.00 in 0 W/m2
18:44 51.4 °F 49.5 °F 29.92 in SW 3.3 mph 8 mph 93% 0.00 in 0 W/m2
18:49 51.4 °F 49.5 °F 29.92 in SW 4.5 mph 10 mph 93% 0.00 in 0 W/m2
18:54 51.4 °F 49.5 °F 29.92 in SSW 3.2 mph 10 mph 93% 0.00 in 0 W/m2
18:59 51.4 °F 49.5 °F 29.92 in SW 4.3 mph 8 mph 93% 0.00 in 0 W/m2
19:04 51.4 °F 49.5 °F 29.92 in SW 2.9 mph 6 mph 93% 0.00 in 0 W/m2
19:09 51.4 °F 49.5 °F 29.91 in SW 5.6 mph 10 mph 93% 0.00 in 0 W/m2
19:14 51.4 °F 49.5 °F 29.91 in SW 6.2 mph 13 mph 93% 0.00 in 0 W/m2
19:19 51.4 °F 49.5 °F 29.91 in SW 6.4 mph 9 mph 93% 0.00 in 0 W/m2
19:24 51.4 °F 49.5 °F 29.91 in SSW 4.9 mph 11 mph 93% 0.00 in 0 W/m2
19:29 51.4 °F 49.5 °F 29.91 in SW 4.4 mph 12 mph 93% 0.00 in 0 W/m2
19:34 51.4 °F 49.5 °F 29.91 in SSW 5.9 mph 11 mph 93% 0.00 in 0 W/m2
19:39 51.4 °F 49.5 °F 29.91 in SW 5.2 mph 10 mph 93% 0.00 in 0 W/m2
19:44 51.4 °F 49.5 °F 29.91 in SSW 5.5 mph 12 mph 93% 0.00 in 0 W/m2
19:49 51.4 °F 49.5 °F 29.91 in SW 5.6 mph 12 mph 93% 0.00 in 0 W/m2
19:54 51.4 °F 49.5 °F 29.91 in SW 3.9 mph 8 mph 93% 0.00 in 0 W/m2
19:59 51.4 °F 49.5 °F 29.90 in SW 4.5 mph 9 mph 93% 0.00 in 0 W/m2
20:04 51.4 °F 49.5 °F 29.90 in SW 6.2 mph 12 mph 93% 0.00 in 0 W/m2
20:09 51.4 °F 49.5 °F 29.90 in SW 5.8 mph 12 mph 93% 0.00 in 0 W/m2
20:14 51.4 °F 49.5 °F 29.90 in WSW 4 mph 8 mph 93% 0.00 in 0 W/m2
20:19 51.4 °F 49.5 °F 29.89 in SW 5 mph 9 mph 93% 0.00 in 0 W/m2
20:24 51.4 °F 49.5 °F 29.89 in SSW 3.7 mph 8 mph 93% 0.00 in 0 W/m2
20:29 51.4 °F 49.5 °F 29.89 in SW 2.4 mph 6 mph 93% 0.00 in 0 W/m2
20:34 51.4 °F 49.5 °F 29.89 in SSW 4.5 mph 10 mph 93% 0.00 in 0 W/m2
20:39 51.4 °F 49.5 °F 29.89 in SSW 3.1 mph 8 mph 93% 0.00 in 0 W/m2
20:44 51.3 °F 49.3 °F 29.88 in SSW 2.1 mph 7 mph 93% 0.00 in 0 W/m2
20:49 51.1 °F 49.1 °F 29.88 in South 5 mph 11 mph 93% 0.00 in 0 W/m2
20:54 51.1 °F 49.1 °F 29.88 in SSW 2.7 mph 7 mph 93% 0.00 in 0 W/m2
20:59 51.1 °F 49.1 °F 29.88 in SW 4.9 mph 10 mph 93% 0.00 in 0 W/m2
21:04 51.1 °F 49.1 °F 29.88 in SSW 4.9 mph 10 mph 93% 0.00 in 0 W/m2
21:09 51.1 °F 49.1 °F 29.87 in SW 5.3 mph 10 mph 93% 0.00 in 0 W/m2
21:14 51.1 °F 49.1 °F 29.87 in SW 4.7 mph 12 mph 93% 0.00 in 0 W/m2
21:19 51.3 °F 49.3 °F 29.87 in SW 7.7 mph 13 mph 93% 0.00 in 0 W/m2
21:24 51.3 °F 49.3 °F 29.87 in SW 7.6 mph 13 mph 93% 0.00 in 0 W/m2
21:29 51.3 °F 49.3 °F 29.87 in SW 7.4 mph 14 mph 93% 0.00 in 0 W/m2
21:34 51.1 °F 49.1 °F 29.87 in SW 5.4 mph 12 mph 93% 0.00 in 0 W/m2
21:39 51 °F 49 °F 29.87 in WSW 5.6 mph 13 mph 93% 0.00 in 0 W/m2
21:44 50.7 °F 48.7 °F 29.87 in WSW 8.6 mph 16 mph 93% 0.00 in 0 W/m2
21:49 50.7 °F 48.7 °F 29.87 in WSW 6.6 mph 13 mph 93% 0.00 in 0 W/m2
21:54 50.5 °F 48.6 °F 29.87 in SW 6.8 mph 13 mph 93% 0.00 in 0 W/m2
21:59 50.4 °F 48.4 °F 29.87 in WSW 5.6 mph 12 mph 93% 0.00 in 0 W/m2
22:04 50.1 °F 48.1 °F 29.86 in WSW 9 mph 14 mph 93% 0.00 in 0 W/m2
22:09 50 °F 48 °F 29.86 in SW 8.3 mph 17 mph 93% 0.00 in 0 W/m2
22:14 50 °F 48 °F 29.85 in SSW 6.2 mph 13 mph 93% 0.00 in 0 W/m2
22:18 50.2 °F 48.1 °F 29.85 in SW 8.8 mph 13 mph 92.8% 0.00 in 0 W/m2
22:24 50.2 °F 48 °F 29.85 in SSW 4.3 mph 11 mph 92% 0.00 in 0 W/m2
22:29 50.3 °F 48.1 °F 29.85 in South 5.3 mph 12 mph 92% 0.00 in 0 W/m2
22:34 50.3 °F 48.1 °F 29.84 in South 5.8 mph 13 mph 92% 0.00 in 0 W/m2
22:39 50.4 °F 47.9 °F 29.84 in SSW 5.7 mph 14 mph 91.2% 0.00 in 0 W/m2
22:44 50.4 °F 47.8 °F 29.84 in SW 5.3 mph 12 mph 91% 0.00 in 0 W/m2
22:49 50.5 °F 47.9 °F 29.84 in SW 6.6 mph 13 mph 91% 0.00 in 0 W/m2
22:54 50.5 °F 48 °F 29.84 in SSW 5.1 mph 16 mph 91% 0.00 in 0 W/m2
22:59 50.5 °F 48 °F 29.84 in SSW 6.4 mph 14 mph 91% 0.00 in 0 W/m2
23:04 50.4 °F 47.6 °F 29.84 in SW 6.3 mph 12 mph 90.2% 0.00 in 0 W/m2
23:09 50.4 °F 47.6 °F 29.84 in SSW 4.8 mph 13 mph 90.2% 0.00 in 0 W/m2
23:14 50.4 °F 47.5 °F 29.83 in SSW 4.8 mph 9 mph 90% 0.00 in 0 W/m2
23:19 50.4 °F 47.6 °F 29.83 in SSW 5.3 mph 10 mph 90.4% 0.00 in 0 W/m2
23:24 50.2 °F 47.5 °F 29.83 in SSW 7.2 mph 16 mph 90.4% 0.00 in 0 W/m2
23:29 50.2 °F 47.3 °F 29.83 in SSW 7.6 mph 16 mph 90% 0.00 in 0 W/m2
23:34 50.2 °F 47.3 °F 29.83 in SSW 8 mph 16 mph 90% 0.00 in 0 W/m2
23:39 50.2 °F 47.3 °F 29.83 in SSW 9 mph 14 mph 90% 0.00 in 0 W/m2
23:44 50.1 °F 47.2 °F 29.82 in SSW 7.4 mph 16 mph 90% 0.00 in 0 W/m2
23:49 50 °F 47.1 °F 29.82 in SSW 6.8 mph 15 mph 90% 0.00 in 0 W/m2
23:54 49.8 °F 46.9 °F 29.82 in SW 7 mph 14 mph 90% 0.00 in 0 W/m2
23:59 49.8 °F 46.9 °F 29.82 in SW 12.2 mph 19 mph 90% 0.00 in 0 W/m2
Bath Spa Weather
Compliments of Weather Underground - 2 mb